createdAt,value
2023-03-31T00:03:25.285Z,99779.91
2023-03-31T00:08:29.901Z,99771.22
2023-03-31T00:13:31.733Z,99771.22
2023-03-31T00:18:35.309Z,99770.31
2023-03-31T00:23:37.414Z,99757.22
2023-03-31T00:28:39.159Z,99749.34
2023-03-31T00:33:42.206Z,99744.19
2023-03-31T00:38:46.291Z,99745.03
2023-03-31T00:44:02.504Z,99743.25
2023-03-31T00:49:05.750Z,99737.94
2023-03-31T00:54:08.453Z,99738.72
2023-03-31T00:59:11.535Z,99736.09
2023-03-31T01:04:14.632Z,99727.44
2023-03-31T01:09:16.965Z,99718.81
2023-03-31T01:14:20.241Z,99704.84
2023-03-31T01:19:27.203Z,99698.88
2023-03-31T01:24:47.334Z,99692.88
2023-03-31T01:29:59.545Z,99693.81
2023-03-31T01:35:35.920Z,99678.09
2023-03-31T01:41:13.526Z,99678.97
2023-03-31T01:46:20.061Z,99672.94
2023-03-31T01:51:25.225Z,99675.53
2023-03-31T01:56:30.718Z,99661.53
2023-03-31T02:01:37.331Z,99650.22
2023-03-31T02:06:41.429Z,99644.03
2023-03-31T02:11:44.607Z,99641.47
2023-03-31T02:16:47.426Z,99630.19
2023-03-31T02:21:52.400Z,99614.47
2023-03-31T02:26:57.321Z,99615.38
2023-03-31T02:32:01.523Z,99608.50
2023-03-31T02:37:03.439Z,99606.13
2023-03-31T02:42:07.555Z,99594.97
2023-03-31T02:47:11.290Z,99594.22
2023-03-31T02:52:32.801Z,99590.75
2023-03-31T02:58:04.375Z,99583.00
2023-03-31T03:03:15.222Z,99578.66
2023-03-31T03:08:21.367Z,99574.28
2023-03-31T03:13:24.517Z,99569.06
2023-03-31T03:18:27.680Z,99561.25
2023-03-31T03:23:29.500Z,99551.69
2023-03-31T03:28:31.518Z,99549.28
2023-03-31T03:33:34.756Z,99539.75
2023-03-31T03:38:36.858Z,99524.16
2023-03-31T03:43:38.795Z,99525.09
2023-03-31T03:48:42.173Z,99529.56
2023-03-31T03:53:43.924Z,99512.94
2023-03-31T03:58:45.746Z,99496.47
2023-03-31T04:03:48.838Z,99498.25
2023-03-31T04:08:50.573Z,99483.53
2023-03-31T04:13:52.287Z,99481.03
2023-03-31T04:18:59.692Z,99462.81
2023-03-31T04:24:04.476Z,99453.25
2023-03-31T04:29:07.385Z,99435.91
2023-03-31T04:34:13.254Z,99432.53
2023-03-31T04:39:15.377Z,99432.59
2023-03-31T04:44:17.207Z,99411.88
2023-03-31T04:49:20.267Z,99396.25
2023-03-31T04:54:22.114Z,99381.56
2023-03-31T04:59:23.851Z,99383.25
2023-03-31T05:04:26.908Z,99371.94
2023-03-31T05:09:28.632Z,99363.13
2023-03-31T05:14:30.448Z,99350.97
2023-03-31T05:19:33.521Z,99346.56
2023-03-31T05:24:35.493Z,99339.50
2023-03-31T05:29:37.542Z,99334.06
2023-03-31T05:34:40.578Z,99326.09
2023-03-31T05:39:42.330Z,99322.34
2023-03-31T05:44:44.128Z,99310.81
2023-03-31T05:49:47.193Z,99298.53
2023-03-31T05:54:48.873Z,99300.03
2023-03-31T05:59:50.787Z,99305.09
2023-03-31T06:04:53.832Z,99303.31
2023-03-31T06:09:55.590Z,99296.28
2023-03-31T06:14:57.284Z,99298.00
2023-03-31T06:20:00.418Z,99287.63
2023-03-31T06:25:02.101Z,99296.28
2023-03-31T06:30:04.236Z,99278.84
2023-03-31T06:35:08.201Z,99272.75
2023-03-31T06:40:10.832Z,99275.19
2023-03-31T06:45:12.659Z,99264.72
2023-03-31T06:50:15.710Z,99251.47
2023-03-31T06:55:17.524Z,99243.56
2023-03-31T07:00:22.356Z,99247.59
2023-03-31T07:05:29.065Z,99238.31
2023-03-31T07:10:31.398Z,99236.19
2023-03-31T07:15:33.202Z,99227.53
2023-03-31T07:20:36.264Z,99234.69
2023-03-31T07:25:37.909Z,99218.94
2023-03-31T07:30:40.022Z,99228.56
2023-03-31T07:35:43.137Z,99225.16
2023-03-31T07:40:47.482Z,99227.84
2023-03-31T07:45:54.844Z,99218.44
2023-03-31T07:50:57.942Z,99220.88
2023-03-31T07:56:06.417Z,99199.50
2023-03-31T08:01:08.586Z,99197.47
2023-03-31T08:06:11.790Z,99191.38
2023-03-31T08:11:14.028Z,99189.66
2023-03-31T08:16:15.920Z,99173.44
2023-03-31T08:21:19.025Z,99158.66
2023-03-31T08:26:21.853Z,99167.66
2023-03-31T08:31:25.964Z,99165.03
2023-03-31T08:36:30.355Z,99156.19
2023-03-31T08:41:41.650Z,99147.94
2023-03-31T08:46:43.298Z,99146.88
2023-03-31T08:51:47.662Z,99126.47
2023-03-31T08:56:49.526Z,99120.84
2023-03-31T09:01:56.824Z,99107.94
2023-03-31T09:07:02.771Z,99093.19
2023-03-31T09:12:07.531Z,99083.06
2023-03-31T09:17:16.279Z,99075.91
2023-03-31T09:22:21.068Z,99082.03
2023-03-31T09:27:22.776Z,99083.94
2023-03-31T09:32:25.362Z,99071.63
2023-03-31T09:37:30.893Z,99063.72
2023-03-31T09:42:32.595Z,99055.13
2023-03-31T09:47:39.044Z,99051.25
2023-03-31T09:52:43.402Z,99053.00
2023-03-31T09:57:45.166Z,99047.72
2023-03-31T10:02:49.488Z,99032.34
2023-03-31T10:07:53.235Z,99026.00
2023-03-31T10:12:57.699Z,99016.81
2023-03-31T10:17:59.574Z,99012.97
2023-03-31T10:23:06.719Z,99016.63
2023-03-31T10:28:10.883Z,99013.47
2023-03-31T10:33:22.163Z,99015.22
2023-03-31T10:38:27.531Z,99010.97
2023-03-31T10:43:29.946Z,99012.06
2023-03-31T10:48:32.560Z,98999.03
2023-03-31T10:53:41.257Z,98999.03
2023-03-31T10:59:02.092Z,99002.56
2023-03-31T11:04:21.469Z,99000.41
2023-03-31T11:09:35.415Z,98993.53
2023-03-31T11:14:42.318Z,98992.69
2023-03-31T11:19:47.520Z,98996.22
2023-03-31T11:25:07.821Z,98993.00
2023-03-31T11:30:13.181Z,98990.56
2023-03-31T11:35:23.841Z,98988.38
2023-03-31T11:40:39.366Z,98981.53
2023-03-31T11:45:42.308Z,98979.28
2023-03-31T11:50:48.034Z,98974.25
2023-03-31T11:55:53.875Z,98975.19
2023-03-31T12:00:57.157Z,98969.34
2023-03-31T12:06:02.613Z,98968.53
2023-03-31T12:11:08.712Z,98957.94
2023-03-31T12:16:12.015Z,98957.78
2023-03-31T12:21:13.770Z,98950.81
2023-03-31T12:26:27.979Z,98946.34
2023-03-31T12:31:30.559Z,98942.69
2023-03-31T12:36:40.246Z,98939.06
2023-03-31T12:41:46.009Z,98934.66
2023-03-31T12:47:03.928Z,98935.34
2023-03-31T12:52:06.538Z,98928.03
2023-03-31T12:57:21.262Z,98918.91
2023-03-31T13:02:25.647Z,98925.59
2023-03-31T13:07:35.657Z,98923.06
2023-03-31T13:12:38.725Z,98908.13
2023-03-31T13:17:41.289Z,98894.75
2023-03-31T13:22:44.170Z,98887.50
2023-03-31T13:27:50.114Z,98887.84
2023-03-31T13:33:02.871Z,98887.13
2023-03-31T13:38:08.342Z,98872.50
2023-03-31T13:43:45.641Z,98868.84
2023-03-31T13:48:52.117Z,98851.09
2023-03-31T13:54:24.141Z,98852.53
2023-03-31T13:59:46.068Z,98850.19
2023-03-31T14:04:59.029Z,98845.66
2023-03-31T14:10:00.895Z,98845.22
2023-03-31T14:15:03.701Z,98839.69
2023-03-31T14:20:24.720Z,98843.50
2023-03-31T14:25:36.067Z,98844.53
2023-03-31T14:30:42.692Z,98837.78
2023-03-31T14:35:49.228Z,98841.50
2023-03-31T14:40:53.783Z,98835.47
2023-03-31T14:45:59.414Z,98832.91
2023-03-31T14:51:03.194Z,98826.13
2023-03-31T14:56:06.809Z,98828.63
2023-03-31T15:01:09.028Z,98825.94
2023-03-31T15:06:12.411Z,98834.25
2023-03-31T15:11:17.812Z,98826.41
2023-03-31T15:16:28.952Z,98821.34
2023-03-31T15:21:34.272Z,98818.94
2023-03-31T15:26:42.073Z,98821.81
2023-03-31T15:31:44.814Z,98827.59
2023-03-31T15:36:48.080Z,98815.22
2023-03-31T15:41:50.014Z,98829.38
2023-03-31T15:46:58.005Z,98829.75
2023-03-31T15:52:02.313Z,98820.25
2023-03-31T15:57:04.604Z,98819.38
2023-03-31T16:02:09.076Z,98827.72
2023-03-31T16:07:16.637Z,98818.66
2023-03-31T16:12:20.639Z,98809.72
2023-03-31T16:17:28.605Z,98807.72
2023-03-31T16:22:35.412Z,98805.63
2023-03-31T16:27:39.793Z,98809.91
2023-03-31T16:33:01.764Z,98814.84
2023-03-31T16:38:06.040Z,98812.88
2023-03-31T16:43:09.615Z,98813.16
2023-03-31T16:48:16.350Z,98818.50
2023-03-31T16:53:22.162Z,98828.47
2023-03-31T16:58:24.133Z,98823.50
2023-03-31T17:03:26.410Z,98829.06
2023-03-31T17:08:29.594Z,98823.94
2023-03-31T17:13:32.385Z,98823.00
2023-03-31T17:18:34.597Z,98821.63
2023-03-31T17:23:38.105Z,98828.91
2023-03-31T17:28:40.053Z,98827.25
2023-03-31T17:33:42.013Z,98835.00
2023-03-31T17:38:45.314Z,98833.28
2023-03-31T17:43:48.737Z,98831.63
2023-03-31T17:48:51.196Z,98832.47
2023-03-31T17:53:54.263Z,98834.31
2023-03-31T17:58:56.076Z,98843.13
2023-03-31T18:03:57.814Z,98839.72
2023-03-31T18:09:00.942Z,98844.09
2023-03-31T18:14:02.935Z,98861.53
2023-03-31T18:19:04.711Z,98858.97
2023-03-31T18:24:08.171Z,98861.63
2023-03-31T18:29:09.898Z,98868.69
2023-03-31T18:34:13.428Z,98864.25
2023-03-31T18:39:16.605Z,98865.06
2023-03-31T18:44:18.726Z,98873.72
2023-03-31T18:49:20.689Z,98877.22
2023-03-31T18:54:23.884Z,98879.00
2023-03-31T18:59:25.592Z,98880.75
2023-03-31T19:04:27.242Z,98878.25
2023-03-31T19:09:30.261Z,98883.53
2023-03-31T19:14:33.229Z,98892.25
2023-03-31T19:19:35.389Z,98888.78
2023-03-31T19:24:39.909Z,98891.41
2023-03-31T19:29:41.617Z,98902.78
2023-03-31T19:34:45.429Z,98904.63
2023-03-31T19:39:48.762Z,98906.41
2023-03-31T19:44:50.600Z,98909.09
2023-03-31T19:49:52.603Z,98910.91
2023-03-31T19:54:55.722Z,98905.00
2023-03-31T19:59:57.484Z,98897.66
2023-03-31T20:04:59.356Z,98895.91
2023-03-31T20:10:02.380Z,98895.94
2023-03-31T20:15:04.786Z,98891.53
2023-03-31T20:20:08.059Z,98892.50
2023-03-31T20:25:11.348Z,98893.47
2023-03-31T20:30:13.263Z,98888.34
2023-03-31T20:35:15.213Z,98892.94
2023-03-31T20:40:18.452Z,98893.13
2023-03-31T20:45:20.355Z,98882.81
2023-03-31T20:50:22.945Z,98878.44
2023-03-31T20:55:26.550Z,98884.63
2023-03-31T21:00:28.339Z,98887.09
2023-03-31T21:05:30.366Z,98887.94
2023-03-31T21:10:39.153Z,98891.53
2023-03-31T21:15:40.949Z,98883.72
2023-03-31T21:20:48.969Z,98882.81
2023-03-31T21:25:53.129Z,98884.53
2023-03-31T21:30:55.897Z,98888.97
2023-03-31T21:35:58.724Z,98884.69
2023-03-31T21:41:05.964Z,98883.78
2023-03-31T21:46:07.971Z,98884.69
2023-03-31T21:51:10.058Z,98886.50
2023-03-31T21:56:13.108Z,98883.06
2023-03-31T22:01:14.870Z,98882.13
2023-03-31T22:06:17.099Z,98886.50
2023-03-31T22:11:20.255Z,98882.13
2023-03-31T22:16:22.162Z,98889.97
2023-03-31T22:21:24.836Z,98893.50
2023-03-31T22:26:29.626Z,98890.03
2023-03-31T22:31:31.957Z,98889.13
2023-03-31T22:36:33.776Z,98894.50
2023-03-31T22:41:37.015Z,98897.13
2023-03-31T22:46:38.962Z,98907.56
2023-03-31T22:51:41.543Z,98901.38
2023-03-31T22:56:45.376Z,98898.78
2023-03-31T23:01:52.734Z,98898.88
2023-03-31T23:06:55.053Z,98897.16
2023-03-31T23:11:58.108Z,98901.56
2023-03-31T23:16:59.934Z,98908.59
2023-03-31T23:22:02.503Z,98896.47
2023-03-31T23:27:05.544Z,98897.38
2023-03-31T23:32:07.307Z,98899.88
2023-03-31T23:37:09.434Z,98896.47
2023-03-31T23:42:16.240Z,98901.00
2023-03-31T23:47:18.206Z,98895.81
2023-03-31T23:52:20.246Z,98894.06
2023-03-31T23:57:23.358Z,98890.69
